createdAt,value
2017-10-01T00:01:30.929Z,13.57
2017-10-01T00:03:58.351Z,14.83
2017-10-01T00:06:25.772Z,13.80
2017-10-01T00:08:53.187Z,14.00
2017-10-01T00:11:20.602Z,14.70
2017-10-01T00:13:48.014Z,13.17
2017-10-01T00:16:16.203Z,13.03
2017-10-01T00:18:44.390Z,13.77
2017-10-01T00:21:11.809Z,13.30
2017-10-01T00:23:39.234Z,13.23
2017-10-01T00:26:06.654Z,14.50
2017-10-01T00:28:34.098Z,12.00
2017-10-01T00:31:03.240Z,13.63
2017-10-01T00:33:30.683Z,12.40
2017-10-01T00:35:58.095Z,12.37
2017-10-01T00:38:26.292Z,13.47
2017-10-01T00:40:53.723Z,13.17
2017-10-01T00:43:21.137Z,13.60
2017-10-01T00:45:48.555Z,11.40
2017-10-01T00:48:15.974Z,13.40
2017-10-01T00:50:44.661Z,12.13
2017-10-01T00:53:12.075Z,13.90
2017-10-01T00:55:39.500Z,11.87
2017-10-01T00:58:07.696Z,12.37
2017-10-01T01:00:35.111Z,13.10
2017-10-01T01:03:03.178Z,13.30
2017-10-01T01:05:30.611Z,13.40
2017-10-01T01:07:58.037Z,12.70
2017-10-01T01:10:25.459Z,12.43
2017-10-01T01:12:52.891Z,12.90
2017-10-01T01:15:20.330Z,13.00
2017-10-01T01:17:47.754Z,13.57
2017-10-01T01:20:15.181Z,13.00
2017-10-01T01:22:43.366Z,13.23
2017-10-01T01:25:11.546Z,12.77
2017-10-01T01:27:38.977Z,13.07
2017-10-01T01:30:06.391Z,13.40
2017-10-01T01:32:33.815Z,13.40
2017-10-01T01:35:01.235Z,13.07
2017-10-01T01:37:30.174Z,13.03
2017-10-01T01:39:57.593Z,13.60
2017-10-01T01:42:25.012Z,13.03
2017-10-01T01:44:52.433Z,13.47
2017-10-01T01:47:19.850Z,13.47
2017-10-01T01:49:47.286Z,13.37
2017-10-01T01:52:14.695Z,13.60
2017-10-01T01:54:42.122Z,13.70
2017-10-01T01:57:09.550Z,14.60
2017-10-01T01:59:36.982Z,13.60
2017-10-01T02:02:04.402Z,14.33
2017-10-01T02:04:32.594Z,14.57
2017-10-01T02:07:00.019Z,15.73
2017-10-01T02:09:27.471Z,15.20
2017-10-01T02:11:54.886Z,14.53
2017-10-01T02:14:22.316Z,14.60
2017-10-01T02:16:50.502Z,16.20
2017-10-01T02:19:17.931Z,15.73
2017-10-01T02:21:46.119Z,15.53
2017-10-01T02:24:13.543Z,15.07
2017-10-01T02:26:40.970Z,16.40
2017-10-01T02:29:08.387Z,15.43
2017-10-01T02:31:36.575Z,15.70
2017-10-01T02:34:04.430Z,16.30
2017-10-01T02:36:32.616Z,15.70
2017-10-01T02:39:00.030Z,16.10
2017-10-01T02:41:28.219Z,15.77
2017-10-01T02:43:56.408Z,15.67
2017-10-01T02:46:23.822Z,15.93
2017-10-01T02:48:51.242Z,16.30
2017-10-01T02:51:18.662Z,15.67
2017-10-01T02:53:46.855Z,16.80
2017-10-01T02:56:14.270Z,16.23
2017-10-01T02:58:41.690Z,16.23
2017-10-01T03:01:09.106Z,14.60
2017-10-01T03:03:37.288Z,14.73
2017-10-01T03:06:05.655Z,14.90
2017-10-01T03:08:34.777Z,15.00
2017-10-01T03:11:02.195Z,14.43
2017-10-01T03:13:29.607Z,15.63
2017-10-01T03:15:57.035Z,14.00
2017-10-01T03:18:24.450Z,14.43
2017-10-01T03:20:51.874Z,12.43
2017-10-01T03:23:19.303Z,14.00
2017-10-01T03:25:46.732Z,12.27
2017-10-01T03:28:14.155Z,13.50
2017-10-01T03:30:41.571Z,12.82
2017-10-01T03:33:08.980Z,13.80
2017-10-01T03:35:36.406Z,12.60
2017-10-01T03:38:03.819Z,12.73
2017-10-01T03:40:32.035Z,12.40
2017-10-01T03:44:07.981Z,12.83
2017-10-01T03:46:36.337Z,13.30
2017-10-01T03:49:05.442Z,12.77
2017-10-01T03:51:32.859Z,12.00
2017-10-01T03:54:00.279Z,12.30
2017-10-01T03:56:27.701Z,12.63
2017-10-01T03:58:55.915Z,13.07
2017-10-01T04:01:23.330Z,12.23
2017-10-01T04:03:51.529Z,12.17
2017-10-01T04:06:18.928Z,12.17
2017-10-01T04:08:46.363Z,12.57
2017-10-01T04:11:13.784Z,11.70
2017-10-01T04:13:41.204Z,11.50
2017-10-01T04:16:08.628Z,11.70
2017-10-01T04:18:36.046Z,10.43
2017-10-01T04:21:03.473Z,10.70
2017-10-01T04:23:30.898Z,10.13
2017-10-01T04:25:58.329Z,11.13
2017-10-01T04:28:25.742Z,10.57
2017-10-01T04:30:54.675Z,10.80
2017-10-01T04:33:22.090Z,11.07
2017-10-01T04:35:49.515Z,11.90
2017-10-01T04:38:16.937Z,11.47
2017-10-01T04:40:44.345Z,11.70
2017-10-01T04:43:11.770Z,11.53
2017-10-01T04:45:39.194Z,11.60
2017-10-01T04:48:07.375Z,12.70
2017-10-01T04:50:34.798Z,11.53
2017-10-01T04:53:02.217Z,12.20
2017-10-01T04:55:29.646Z,12.07
2017-10-01T04:57:57.446Z,11.53
2017-10-01T05:00:24.874Z,10.23
2017-10-01T05:02:52.292Z,11.37
2017-10-01T05:05:19.709Z,10.90
2017-10-01T05:07:47.141Z,9.80
2017-10-01T05:10:14.559Z,9.70
2017-10-01T05:12:41.970Z,11.00
2017-10-01T05:15:09.412Z,11.50
2017-10-01T05:17:36.838Z,10.97
2017-10-01T05:20:05.018Z,10.50
2017-10-01T05:22:32.435Z,11.53
2017-10-01T05:24:59.875Z,11.30
2017-10-01T05:27:27.303Z,10.27
2017-10-01T05:29:54.730Z,11.37
2017-10-01T05:32:22.906Z,12.13
2017-10-01T05:34:50.323Z,12.97
2017-10-01T05:37:17.763Z,14.10
2017-10-01T05:39:45.179Z,14.10
2017-10-01T05:42:13.362Z,12.23
2017-10-01T05:44:40.782Z,14.00
2017-10-01T05:47:08.223Z,14.30
2017-10-01T05:49:35.638Z,14.40
2017-10-01T05:52:03.075Z,14.07
2017-10-01T05:54:31.257Z,13.90
2017-10-01T05:56:58.675Z,12.70
2017-10-01T05:59:26.110Z,13.27
2017-10-01T06:01:53.543Z,13.80
2017-10-01T06:04:20.960Z,12.83
2017-10-01T06:06:48.405Z,13.43
2017-10-01T06:09:15.812Z,12.27
2017-10-01T06:11:43.236Z,13.00
2017-10-01T06:14:11.429Z,12.77
2017-10-01T06:16:38.843Z,12.80
2017-10-01T06:19:08.700Z,13.73
2017-10-01T06:21:36.117Z,14.70
2017-10-01T06:24:03.547Z,14.73
2017-10-01T06:26:30.984Z,13.53
2017-10-01T06:28:58.427Z,14.23
2017-10-01T06:31:25.843Z,14.93
2017-10-01T06:33:54.042Z,14.97
2017-10-01T06:36:22.235Z,15.50
2017-10-01T06:38:49.664Z,15.63
2017-10-01T06:41:17.854Z,15.50
2017-10-01T06:43:45.273Z,15.30
2017-10-01T06:46:12.695Z,15.98
2017-10-01T06:48:40.104Z,15.60
2017-10-01T06:51:09.006Z,15.48
2017-10-01T06:53:36.423Z,14.33
2017-10-01T06:56:03.843Z,14.47
2017-10-01T06:58:31.263Z,14.93
2017-10-01T07:00:59.455Z,15.53
2017-10-01T07:03:26.939Z,14.57
2017-10-01T07:05:54.365Z,14.20
2017-10-01T07:08:21.787Z,13.97
2017-10-01T07:10:49.216Z,14.00
2017-10-01T07:13:17.679Z,14.25
2017-10-01T07:15:45.091Z,13.83
2017-10-01T07:18:13.289Z,14.47
2017-10-01T07:20:40.706Z,13.57
2017-10-01T07:23:09.639Z,12.57
2017-10-01T07:25:37.050Z,11.87
2017-10-01T07:28:04.467Z,13.13
2017-10-01T07:30:31.878Z,13.50
2017-10-01T07:33:00.068Z,14.50
2017-10-01T07:35:28.254Z,12.70
2017-10-01T07:37:55.677Z,13.73
2017-10-01T07:40:23.095Z,13.95
2017-10-01T07:42:50.527Z,11.90
2017-10-01T07:45:17.942Z,12.23
2017-10-01T07:47:45.355Z,11.60
2017-10-01T07:50:12.766Z,11.70
2017-10-01T07:52:40.965Z,13.03
2017-10-01T07:55:09.946Z,13.82
2017-10-01T07:57:39.070Z,12.73
2017-10-01T08:00:06.492Z,12.10
2017-10-01T08:02:34.679Z,12.57
2017-10-01T08:05:02.106Z,12.80
2017-10-01T08:07:29.520Z,12.23
2017-10-01T08:09:56.946Z,10.87
2017-10-01T08:12:24.363Z,11.03
2017-10-01T08:14:51.778Z,11.27
2017-10-01T08:17:19.199Z,11.07
2017-10-01T08:19:47.398Z,10.23
2017-10-01T08:22:14.807Z,10.17
2017-10-01T08:24:42.223Z,9.03
2017-10-01T08:27:09.644Z,11.03
2017-10-01T08:29:37.840Z,10.63
2017-10-01T08:32:05.250Z,9.93
2017-10-01T08:34:32.666Z,9.27
2017-10-01T08:37:00.094Z,8.83
2017-10-01T08:39:28.275Z,8.40
2017-10-01T08:41:55.685Z,8.30
2017-10-01T08:44:23.099Z,8.27
2017-10-01T08:46:50.522Z,7.40
2017-10-01T08:49:18.701Z,7.70
2017-10-01T08:51:46.874Z,7.40
2017-10-01T08:54:14.294Z,7.27
2017-10-01T08:56:41.712Z,6.97
2017-10-01T08:59:10.139Z,7.70
2017-10-01T09:01:37.563Z,6.90
2017-10-01T09:04:04.972Z,7.30
2017-10-01T09:06:33.150Z,6.90
2017-10-01T09:09:01.332Z,6.63
2017-10-01T09:11:28.738Z,6.70
2017-10-01T09:13:56.154Z,6.77
2017-10-01T09:16:23.572Z,7.10
2017-10-01T09:18:51.787Z,7.00
2017-10-01T09:21:19.195Z,7.00
2017-10-01T09:23:46.607Z,6.40
2017-10-01T09:26:14.040Z,7.00
2017-10-01T09:28:41.468Z,6.50
2017-10-01T09:31:08.895Z,6.50
2017-10-01T09:33:36.315Z,6.20
2017-10-01T09:36:03.727Z,5.70
2017-10-01T09:38:31.146Z,6.20
2017-10-01T09:40:58.550Z,5.60
2017-10-01T09:43:26.730Z,5.93
2017-10-01T09:45:54.916Z,5.20
2017-10-01T09:48:23.099Z,4.97
2017-10-01T09:50:50.507Z,5.57
2017-10-01T09:53:17.934Z,6.00
2017-10-01T09:55:45.354Z,5.70
2017-10-01T09:58:13.568Z,5.60
2017-10-01T10:00:42.007Z,5.68
2017-10-01T10:03:11.117Z,5.37
2017-10-01T10:05:38.539Z,5.83
2017-10-01T10:08:05.982Z,6.03
2017-10-01T10:10:33.975Z,5.93
2017-10-01T10:13:01.408Z,5.80
2017-10-01T10:15:28.800Z,5.47
2017-10-01T10:17:56.215Z,5.63
2017-10-01T10:20:23.640Z,8.10
2017-10-01T10:22:51.047Z,7.20
2017-10-01T10:25:19.230Z,9.10
2017-10-01T10:27:47.409Z,8.47
2017-10-01T10:30:14.856Z,7.53
2017-10-01T10:32:43.088Z,7.73
2017-10-01T10:35:10.498Z,8.30
2017-10-01T10:37:37.910Z,10.90
2017-10-01T10:40:05.346Z,10.57
2017-10-01T10:42:32.750Z,11.20
2017-10-01T10:45:00.979Z,11.50
2017-10-01T10:47:28.394Z,12.00
2017-10-01T10:49:56.579Z,12.40
2017-10-01T10:52:24.002Z,11.77
2017-10-01T10:54:51.447Z,11.80
2017-10-01T10:57:19.914Z,12.20
2017-10-01T10:59:47.343Z,10.60
2017-10-01T11:02:14.752Z,11.10
2017-10-01T11:04:42.956Z,10.07
2017-10-01T11:07:10.384Z,10.43
2017-10-01T11:09:38.555Z,8.87
2017-10-01T11:12:05.980Z,8.80
2017-10-01T11:14:33.391Z,13.63
2017-10-01T11:17:00.813Z,11.70
2017-10-01T11:19:28.246Z,7.77
2017-10-01T11:21:55.654Z,9.00
2017-10-01T11:24:23.078Z,8.10
2017-10-01T11:26:50.513Z,13.50
2017-10-01T11:29:17.956Z,23.03
2017-10-01T11:31:45.374Z,10.57
2017-10-01T11:34:13.574Z,13.73
2017-10-01T11:36:41.004Z,14.30
2017-10-01T11:39:09.178Z,10.60
2017-10-01T11:41:37.384Z,11.70
2017-10-01T11:44:04.833Z,10.03
2017-10-01T11:46:32.255Z,8.17
2017-10-01T11:49:00.434Z,8.40
2017-10-01T11:51:28.628Z,7.67
2017-10-01T11:53:56.043Z,8.60
2017-10-01T11:56:23.474Z,7.33
2017-10-01T11:58:50.924Z,6.70
2017-10-01T12:01:18.331Z,7.20
2017-10-01T12:03:45.750Z,5.40
2017-10-01T12:06:14.061Z,5.77
2017-10-01T12:08:43.170Z,5.60
2017-10-01T12:11:10.589Z,5.50
2017-10-01T12:13:38.009Z,5.70
2017-10-01T12:16:05.430Z,6.30
2017-10-01T12:18:33.638Z,6.50
2017-10-01T12:21:01.050Z,8.13
2017-10-01T12:23:29.233Z,5.70
2017-10-01T12:25:57.480Z,6.00
2017-10-01T12:28:24.999Z,5.97
2017-10-01T12:30:52.434Z,6.57
2017-10-01T12:33:20.597Z,7.40
2017-10-01T12:35:48.794Z,13.43
2017-10-01T12:38:16.209Z,6.10
2017-10-01T12:40:44.639Z,5.67
2017-10-01T12:43:12.092Z,6.30
2017-10-01T12:45:39.543Z,6.27
2017-10-01T12:48:06.962Z,5.50
2017-10-01T12:50:35.182Z,5.50
2017-10-01T12:53:02.781Z,5.33
2017-10-01T12:55:30.250Z,4.97
2017-10-01T12:57:57.694Z,5.70
2017-10-01T13:00:30.746Z,5.30
2017-10-01T13:02:58.171Z,5.37
2017-10-01T13:05:25.846Z,5.47
2017-10-01T13:07:53.634Z,5.67
2017-10-01T13:10:21.082Z,6.73
2017-10-01T13:12:48.497Z,6.07
2017-10-01T13:15:16.684Z,4.53
2017-10-01T13:17:45.274Z,4.17
2017-10-01T13:20:12.702Z,4.40
2017-10-01T13:22:40.125Z,3.67
2017-10-01T13:25:07.534Z,3.90
2017-10-01T13:27:34.971Z,4.93
2017-10-01T13:30:02.381Z,4.37
2017-10-01T13:32:29.795Z,4.03
2017-10-01T13:34:57.975Z,4.73
2017-10-01T13:37:26.177Z,4.67
2017-10-01T13:39:53.562Z,4.87
2017-10-01T13:42:20.992Z,4.33
2017-10-01T13:44:48.400Z,4.20
2017-10-01T13:47:16.647Z,4.60
2017-10-01T13:49:45.810Z,4.07
2017-10-01T13:52:13.246Z,4.00
2017-10-01T13:54:41.409Z,3.73
2017-10-01T13:57:09.618Z,4.20
2017-10-01T13:59:37.036Z,3.67
2017-10-01T14:02:05.223Z,2.90
2017-10-01T14:04:33.399Z,3.70
2017-10-01T14:07:00.866Z,3.87
2017-10-01T14:09:28.336Z,4.47
2017-10-01T14:11:55.786Z,3.67
2017-10-01T14:14:23.200Z,4.17
2017-10-01T14:16:50.607Z,3.70
2017-10-01T14:19:18.022Z,4.00
2017-10-01T14:21:45.563Z,4.00
2017-10-01T14:24:12.966Z,4.23
2017-10-01T14:26:40.374Z,3.70
2017-10-01T14:29:07.782Z,4.40
2017-10-01T14:31:35.234Z,3.60
2017-10-01T14:34:02.682Z,4.20
2017-10-01T14:36:30.153Z,3.93
2017-10-01T14:38:57.577Z,3.93
2017-10-01T14:41:25.770Z,4.10
2017-10-01T14:43:53.227Z,3.97
2017-10-01T14:46:20.642Z,3.63
2017-10-01T14:48:48.154Z,3.00
2017-10-01T14:51:17.267Z,4.12
2017-10-01T14:53:44.703Z,3.30
2017-10-01T14:56:12.122Z,3.63
2017-10-01T14:58:40.324Z,3.80
2017-10-01T15:01:08.280Z,3.50
2017-10-01T15:03:35.755Z,4.10
2017-10-01T15:06:03.195Z,3.30
2017-10-01T15:08:30.774Z,4.20
2017-10-01T15:10:58.232Z,3.50
2017-10-01T15:13:25.678Z,3.80
2017-10-01T15:15:53.840Z,3.50
2017-10-01T15:18:21.264Z,3.70
2017-10-01T15:20:50.194Z,4.03
2017-10-01T15:23:17.610Z,3.90
2017-10-01T15:25:45.023Z,3.27
2017-10-01T15:28:12.482Z,3.37
2017-10-01T15:30:39.870Z,3.60
2017-10-01T15:33:07.274Z,4.33
2017-10-01T15:35:34.702Z,3.93
2017-10-01T15:38:02.870Z,3.43
2017-10-01T15:40:31.046Z,3.60
2017-10-01T15:42:59.230Z,3.60
2017-10-01T15:45:27.427Z,5.97
2017-10-01T15:47:54.834Z,4.87
2017-10-01T15:50:22.256Z,5.20
2017-10-01T15:52:49.662Z,4.47
2017-10-01T15:55:17.853Z,5.03
2017-10-01T15:57:46.951Z,4.60
2017-10-01T16:00:14.371Z,5.77
2017-10-01T16:02:41.799Z,5.70
2017-10-01T16:05:09.219Z,6.43
2017-10-01T16:07:37.406Z,5.50
2017-10-01T16:10:04.831Z,6.47
2017-10-01T16:12:33.014Z,5.60
2017-10-01T16:15:01.208Z,7.90
2017-10-01T16:17:28.612Z,6.50
2017-10-01T16:19:56.238Z,6.20
2017-10-01T16:22:23.662Z,6.30
2017-10-01T16:24:51.112Z,6.70
2017-10-01T16:27:18.506Z,6.73
2017-10-01T16:29:45.922Z,7.80
2017-10-01T16:32:14.098Z,7.80
2017-10-01T16:34:42.305Z,7.07
2017-10-01T16:37:10.069Z,7.20
2017-10-01T16:39:37.497Z,6.00
2017-10-01T16:42:05.828Z,6.53
2017-10-01T16:44:33.244Z,5.57
2017-10-01T16:47:00.674Z,6.00
2017-10-01T16:49:28.894Z,6.40
2017-10-01T16:51:56.444Z,6.27
2017-10-01T16:54:23.854Z,6.00
2017-10-01T16:56:52.048Z,6.30
2017-10-01T16:59:20.258Z,6.43
2017-10-01T17:01:47.682Z,6.40
2017-10-01T17:04:15.125Z,6.10
2017-10-01T17:06:42.530Z,7.20
2017-10-01T17:09:09.943Z,6.07
2017-10-01T17:11:38.120Z,5.30
2017-10-01T17:14:06.295Z,6.30
2017-10-01T17:16:33.727Z,5.73
2017-10-01T17:19:01.134Z,6.90
2017-10-01T17:21:28.594Z,5.90
2017-10-01T17:23:56.046Z,6.37
2017-10-01T17:26:23.463Z,6.43
2017-10-01T17:28:51.734Z,7.00
2017-10-01T17:31:19.143Z,6.67
2017-10-01T17:33:46.618Z,6.97
2017-10-01T17:36:14.041Z,7.03
2017-10-01T17:38:41.454Z,6.60
2017-10-01T17:41:08.882Z,6.50
2017-10-01T17:43:36.318Z,6.22
2017-10-01T17:46:03.723Z,6.50
2017-10-01T17:48:31.138Z,6.30
2017-10-01T17:50:58.550Z,7.07
2017-10-01T17:53:26.761Z,6.93
2017-10-01T17:55:54.181Z,5.80
2017-10-01T17:58:22.357Z,6.00
2017-10-01T18:00:49.770Z,6.00
2017-10-01T18:03:17.226Z,6.80
2017-10-01T18:05:44.632Z,6.77
2017-10-01T18:08:13.995Z,6.87
2017-10-01T18:10:41.423Z,6.40
2017-10-01T18:13:08.846Z,6.67
2017-10-01T18:15:37.031Z,5.30
2017-10-01T18:18:04.447Z,5.87
2017-10-01T18:20:31.858Z,5.63
2017-10-01T18:22:59.278Z,5.40
2017-10-01T18:25:26.864Z,4.70
2017-10-01T18:27:54.278Z,5.60
2017-10-01T18:30:22.454Z,6.03
2017-10-01T18:32:50.630Z,5.90
2017-10-01T18:35:19.526Z,6.00
2017-10-01T18:37:48.633Z,5.40
2017-10-01T18:40:16.047Z,5.03
2017-10-01T18:42:43.482Z,5.27
2017-10-01T18:45:10.902Z,5.03
2017-10-01T18:47:38.380Z,4.50
2017-10-01T18:50:05.774Z,4.90
2017-10-01T18:52:33.190Z,5.57
2017-10-01T18:55:00.602Z,5.43
2017-10-01T18:57:28.787Z,4.93
2017-10-01T18:59:56.983Z,4.40
2017-10-01T19:02:24.395Z,5.17
2017-10-01T19:04:51.803Z,7.17
2017-10-01T19:07:19.226Z,5.77
2017-10-01T19:09:48.204Z,6.37
2017-10-01T19:12:16.441Z,5.90
2017-10-01T19:14:43.850Z,4.60
2017-10-01T19:17:12.046Z,5.40
2017-10-01T19:19:39.738Z,5.33
2017-10-01T19:22:07.159Z,5.17
2017-10-01T19:24:34.575Z,5.20
2017-10-01T19:27:02.027Z,5.67
2017-10-01T19:29:29.406Z,5.50
2017-10-01T19:31:57.587Z,5.23
2017-10-01T19:34:25.818Z,5.23
2017-10-01T19:36:53.234Z,6.03
2017-10-01T19:39:20.650Z,5.30
2017-10-01T19:41:50.494Z,5.47
2017-10-01T19:44:17.916Z,5.43
2017-10-01T19:46:45.353Z,7.00
2017-10-01T19:49:12.859Z,6.77
2017-10-01T19:51:41.039Z,6.10
2017-10-01T19:54:08.451Z,6.33
2017-10-01T19:56:35.897Z,6.37
2017-10-01T19:59:03.340Z,6.63
2017-10-01T20:01:30.963Z,8.10
2017-10-01T20:03:58.383Z,7.70
2017-10-01T20:06:25.914Z,6.20
2017-10-01T20:08:53.322Z,5.80
2017-10-01T20:11:21.520Z,6.17
2017-10-01T20:13:50.603Z,5.80
2017-10-01T20:16:18.042Z,5.73
2017-10-01T20:18:45.457Z,6.10
2017-10-01T20:21:12.871Z,5.83
2017-10-01T20:23:41.043Z,6.07
2017-10-01T20:26:08.459Z,5.57
2017-10-01T20:28:35.880Z,6.17
2017-10-01T20:31:03.295Z,5.73
2017-10-01T20:33:31.475Z,5.57
2017-10-01T20:35:59.711Z,5.80
2017-10-01T20:38:27.125Z,5.67
2017-10-01T20:40:54.558Z,5.83
2017-10-01T20:43:21.963Z,6.37
2017-10-01T20:45:49.371Z,5.60
2017-10-01T20:48:17.556Z,6.20
2017-10-01T20:50:44.978Z,5.63
2017-10-01T20:53:12.390Z,5.60
2017-10-01T20:55:39.811Z,5.43
2017-10-01T20:58:08.006Z,5.00
2017-10-01T21:00:35.422Z,5.50
2017-10-01T21:03:02.846Z,5.53
2017-10-01T21:05:30.250Z,6.00
2017-10-01T21:07:58.435Z,5.68
2017-10-01T21:10:25.851Z,5.30
2017-10-01T21:12:53.269Z,6.03
2017-10-01T21:15:21.084Z,5.00
2017-10-01T21:17:48.507Z,5.47
2017-10-01T21:20:15.950Z,4.60
2017-10-01T21:22:43.355Z,4.67
2017-10-01T21:25:10.759Z,4.60
2017-10-01T21:27:38.183Z,5.00
2017-10-01T21:30:06.367Z,4.90
2017-10-01T21:32:34.550Z,4.60
2017-10-01T21:35:01.952Z,4.43
2017-10-01T21:37:29.366Z,5.10
2017-10-01T21:39:56.826Z,5.10
2017-10-01T21:42:24.243Z,5.63
2017-10-01T21:44:52.433Z,5.55
2017-10-01T21:47:21.534Z,5.53
2017-10-01T21:49:48.971Z,5.47
2017-10-01T21:52:17.150Z,4.27
2017-10-01T21:54:45.328Z,5.00
2017-10-01T21:57:13.517Z,4.97
2017-10-01T21:59:40.943Z,4.53
2017-10-01T22:02:08.358Z,5.10
2017-10-01T22:04:35.786Z,4.47
2017-10-01T22:07:03.204Z,4.57
2017-10-01T22:09:31.394Z,4.70
2017-10-01T22:11:59.587Z,5.43
2017-10-01T22:14:27.010Z,4.77
2017-10-01T22:16:54.427Z,5.00
2017-10-01T22:19:22.901Z,4.72
2017-10-01T22:21:50.325Z,4.50
2017-10-01T22:24:18.491Z,4.30
2017-10-01T22:26:46.676Z,4.60
2017-10-01T22:29:14.852Z,3.87
2017-10-01T22:31:42.267Z,4.60
2017-10-01T22:34:09.691Z,4.47
2017-10-01T22:36:37.115Z,4.97
2017-10-01T22:39:05.282Z,4.33
2017-10-01T22:41:33.476Z,5.00
2017-10-01T22:44:01.651Z,4.80
2017-10-01T22:46:29.075Z,4.40
2017-10-01T22:48:56.478Z,4.57
2017-10-01T22:51:23.895Z,4.30
2017-10-01T22:53:53.015Z,4.90
2017-10-01T22:56:20.427Z,5.07
2017-10-01T22:58:47.865Z,4.10
2017-10-01T23:01:15.285Z,5.37
2017-10-01T23:03:42.696Z,4.50
2017-10-01T23:06:10.936Z,5.00
2017-10-01T23:08:38.341Z,5.30
2017-10-01T23:11:06.535Z,4.73
2017-10-01T23:13:33.957Z,5.10
2017-10-01T23:16:01.371Z,5.40
2017-10-01T23:18:28.801Z,4.90
2017-10-01T23:20:56.972Z,4.67
2017-10-01T23:23:24.395Z,5.00
2017-10-01T23:25:51.819Z,4.77
2017-10-01T23:28:19.230Z,5.03
2017-10-01T23:30:47.411Z,5.30
2017-10-01T23:33:14.827Z,5.10
2017-10-01T23:35:42.243Z,5.23
2017-10-01T23:38:09.685Z,4.80
2017-10-01T23:40:37.102Z,5.17
2017-10-01T23:43:04.518Z,5.20
2017-10-01T23:45:31.939Z,5.17
2017-10-01T23:48:00.134Z,5.60
2017-10-01T23:50:27.570Z,5.30
2017-10-01T23:52:55.759Z,5.60
2017-10-01T23:55:24.441Z,6.30
2017-10-01T23:57:51.860Z,5.40
